Cadiz, Philippines
Current Conditions -  °F | °C
As of 11:00 AM on Sunday 23 Nov 2014 (Local Time) from RPVM Reporting Station
Few Clouds Few Clouds  
Wind Chill: 88°   Ceiling: Unl
Heat Index: 100°   Visibility: 6mi
Dew Point: 77°   Wind: 12mph
Humidity: 70%   Direction: 40°NE
Pressure: 29.85"   Gusts: NA
Location:  10.96°N, 123.31°E
Report Text: RPVM 230300Z 04010KT 9999 FEW020 31/25 Q1011 RMK A2985
Loading
Personal Weather Stations






























Interactive Weather Map New forecast layout! Learn more

10-Day Weather Forecast

Advertisements
Track Severe Weather on mobile